createdAt,value
2023-12-27T00:01:05.828Z,102261.97
2023-12-27T00:03:34.397Z,102262.91
2023-12-27T00:06:02.958Z,102265.63
2023-12-27T00:08:31.238Z,102261.22
2023-12-27T00:10:59.440Z,102257.78
2023-12-27T00:13:27.621Z,102260.53
2023-12-27T00:15:55.809Z,102255.34
2023-12-27T00:18:24.125Z,102258.88
2023-12-27T00:20:52.431Z,102257.06
2023-12-27T00:23:20.898Z,102250.06
2023-12-27T00:25:49.170Z,102243.94
2023-12-27T00:28:17.387Z,102252.88
2023-12-27T00:30:45.817Z,102245.78
2023-12-27T00:33:14.198Z,102247.63
2023-12-27T00:35:43.001Z,102252.03
2023-12-27T00:38:12.194Z,102244.13
2023-12-27T00:40:40.384Z,102238.03
2023-12-27T00:43:08.705Z,102239.88
2023-12-27T00:45:39.081Z,102246.97
2023-12-27T00:48:07.606Z,102245.22
2023-12-27T00:50:35.919Z,102249.63
2023-12-27T00:53:04.708Z,102247.88
2023-12-27T00:55:33.002Z,102246.09
2023-12-27T00:58:01.288Z,102243.41
2023-12-27T01:00:29.596Z,102252.38
2023-12-27T01:02:57.965Z,102250.72
2023-12-27T01:05:26.192Z,102246.31
2023-12-27T01:07:54.652Z,102244.56
2023-12-27T01:10:22.978Z,102238.31
2023-12-27T01:12:51.463Z,102236.50
2023-12-27T01:15:19.705Z,102241.81
2023-12-27T01:17:47.975Z,102244.44
2023-12-27T01:20:16.816Z,102248.00
2023-12-27T01:22:45.080Z,102240.06
2023-12-27T01:25:13.890Z,102240.91
2023-12-27T01:27:42.225Z,102250.59
2023-12-27T01:30:11.269Z,102248.81
2023-12-27T01:32:39.626Z,102246.06
2023-12-27T01:35:08.161Z,102230.03
2023-12-27T01:37:36.496Z,102242.34
2023-12-27T01:40:04.935Z,102244.13
2023-12-27T01:42:35.441Z,102236.09
2023-12-27T01:45:03.852Z,102235.19
2023-12-27T01:47:32.278Z,102229.09
2023-12-27T01:50:00.738Z,102233.59
2023-12-27T01:52:29.047Z,102237.13
2023-12-27T01:54:57.280Z,102242.47
2023-12-27T01:57:25.643Z,102243.34
2023-12-27T01:59:54.628Z,102241.59
2023-12-27T02:02:24.612Z,102240.72
2023-12-27T02:04:52.939Z,102235.44
2023-12-27T02:07:28.220Z,102231.94
2023-12-27T02:10:00.298Z,102243.53
2023-12-27T02:12:33.092Z,102247.06
2023-12-27T02:15:01.472Z,102252.44
2023-12-27T02:17:30.468Z,102249.75
2023-12-27T02:19:59.892Z,102248.84
2023-12-27T02:22:29.205Z,102240.00
2023-12-27T02:24:57.570Z,102231.19
2023-12-27T02:27:26.013Z,102234.75
2023-12-27T02:29:54.439Z,102232.97
2023-12-27T02:32:22.789Z,102228.50
2023-12-27T02:34:51.201Z,102229.34
2023-12-27T02:37:19.516Z,102228.47
2023-12-27T02:39:47.842Z,102221.41
2023-12-27T02:42:16.111Z,102211.63
2023-12-27T02:44:44.410Z,102212.53
2023-12-27T02:47:13.085Z,102213.38
2023-12-27T02:49:41.340Z,102210.66
2023-12-27T02:52:09.599Z,102205.34
2023-12-27T02:54:37.843Z,102198.16
2023-12-27T02:57:06.163Z,102182.13
2023-12-27T02:59:34.469Z,102184.66
2023-12-27T03:02:02.686Z,102178.38
2023-12-27T03:04:31.599Z,102179.28
2023-12-27T03:07:01.014Z,102181.09
2023-12-27T03:09:29.293Z,102179.28
2023-12-27T03:11:58.704Z,102177.47
2023-12-27T03:14:27.586Z,102170.34
2023-12-27T03:16:56.723Z,102166.75
2023-12-27T03:19:26.676Z,102163.13
2023-12-27T03:21:54.972Z,102167.56
2023-12-27T03:24:23.267Z,102151.59
2023-12-27T03:26:51.498Z,102141.78
2023-12-27T03:29:19.948Z,102146.22
2023-12-27T03:31:48.285Z,102147.94
2023-12-27T03:34:16.689Z,102140.81
2023-12-27T03:36:45.010Z,102139.88
2023-12-27T03:39:13.305Z,102139.75
2023-12-27T03:41:41.506Z,102138.78
2023-12-27T03:44:09.797Z,102145.81
2023-12-27T03:46:38.403Z,102135.13
2023-12-27T03:49:06.676Z,102127.94
2023-12-27T03:51:35.202Z,102127.03
2023-12-27T03:54:03.531Z,102142.00
2023-12-27T03:56:31.731Z,102133.09
2023-12-27T03:59:04.809Z,102123.28
2023-12-27T04:01:33.188Z,102110.69
2023-12-27T04:04:01.641Z,102097.19
2023-12-27T04:06:30.232Z,102105.09
2023-12-27T04:08:58.456Z,102106.75
2023-12-27T04:11:26.700Z,102101.31
2023-12-27T04:13:55.644Z,102101.22
2023-12-27T04:16:23.961Z,102096.75
2023-12-27T04:18:52.263Z,102093.19
2023-12-27T04:21:21.655Z,102093.97
2023-12-27T04:23:49.982Z,102088.50
2023-12-27T04:26:18.335Z,102080.38
2023-12-27T04:28:46.608Z,102079.34
2023-12-27T04:31:14.872Z,102075.66
2023-12-27T04:33:43.224Z,102073.72
2023-12-27T04:36:11.550Z,102068.28
2023-12-27T04:38:39.814Z,102067.28
2023-12-27T04:41:09.545Z,102053.97
2023-12-27T04:43:37.990Z,102051.19
2023-12-27T04:46:08.288Z,102048.44
2023-12-27T04:48:36.677Z,102047.44
2023-12-27T04:51:05.134Z,102044.63
2023-12-27T04:53:33.653Z,102035.66
2023-12-27T04:56:01.860Z,102030.25
2023-12-27T04:58:30.198Z,102029.28
2023-12-27T05:00:58.510Z,102036.25
2023-12-27T05:03:29.118Z,102032.66
2023-12-27T05:05:57.703Z,102027.22
2023-12-27T05:08:26.017Z,102021.84
2023-12-27T05:10:54.238Z,102018.19
2023-12-27T05:13:23.783Z,102019.94
2023-12-27T05:15:52.047Z,102017.13
2023-12-27T05:18:20.386Z,102003.78
2023-12-27T05:20:48.621Z,101996.63
2023-12-27T05:23:17.285Z,101999.19
2023-12-27T05:25:45.509Z,101993.81
2023-12-27T05:28:13.977Z,101982.16
2023-12-27T05:30:42.733Z,101981.22
2023-12-27T05:33:11.053Z,101980.31
2023-12-27T05:35:39.503Z,101981.91
2023-12-27T05:38:07.692Z,101975.50
2023-12-27T05:40:35.888Z,101986.91
2023-12-27T05:43:04.203Z,101988.63
2023-12-27T05:45:32.427Z,101977.94
2023-12-27T05:48:01.361Z,101978.78
2023-12-27T05:50:29.485Z,101971.56
2023-12-27T05:52:57.682Z,101971.47
2023-12-27T05:55:26.030Z,101969.66
2023-12-27T05:57:54.299Z,101964.19
2023-12-27T06:00:22.906Z,101959.66
2023-12-27T06:02:51.482Z,101955.06
2023-12-27T06:05:21.064Z,101951.47
2023-12-27T06:07:49.441Z,101956.72
2023-12-27T06:10:17.630Z,101947.75
2023-12-27T06:12:45.880Z,101938.81
2023-12-27T06:15:14.225Z,101941.38
2023-12-27T06:17:43.406Z,101936.00
2023-12-27T06:20:11.569Z,101923.53
2023-12-27T06:22:39.734Z,101929.53
2023-12-27T06:25:08.194Z,101923.25
2023-12-27T06:27:36.524Z,101917.06
2023-12-27T06:30:05.617Z,101908.06
2023-12-27T06:32:33.727Z,101912.41
2023-12-27T06:35:01.956Z,101898.03
2023-12-27T06:37:30.276Z,101896.16
2023-12-27T06:39:58.511Z,101898.78
2023-12-27T06:42:26.761Z,101887.13
2023-12-27T06:44:55.377Z,101875.44
2023-12-27T06:47:23.615Z,101885.13
2023-12-27T06:49:51.956Z,101867.25
2023-12-27T06:52:20.265Z,101859.28
2023-12-27T06:54:48.465Z,101849.44
2023-12-27T06:57:16.758Z,101858.22
2023-12-27T06:59:45.066Z,101863.53
2023-12-27T07:02:13.266Z,101862.66
2023-12-27T07:04:43.828Z,101849.25
2023-12-27T07:07:12.203Z,101833.16
2023-12-27T07:09:40.596Z,101846.41
2023-12-27T07:12:11.038Z,101838.41
2023-12-27T07:14:39.906Z,101841.91
2023-12-27T07:17:08.369Z,101832.88
2023-12-27T07:19:36.840Z,101831.91
2023-12-27T07:22:05.227Z,101840.75
2023-12-27T07:24:34.021Z,101825.53
2023-12-27T07:27:02.442Z,101826.41
2023-12-27T07:29:30.702Z,101821.88
2023-12-27T07:31:59.355Z,101812.00
2023-12-27T07:34:27.562Z,101812.81
2023-12-27T07:36:56.136Z,101811.91
2023-12-27T07:39:24.412Z,101813.63
2023-12-27T07:41:52.725Z,101820.69
2023-12-27T07:44:22.642Z,101818.78
2023-12-27T07:46:50.927Z,101816.00
2023-12-27T07:49:19.354Z,101815.00
2023-12-27T07:51:47.644Z,101806.88
2023-12-27T07:54:15.950Z,101807.59
2023-12-27T07:56:44.273Z,101801.34
2023-12-27T07:59:12.586Z,101798.50
2023-12-27T08:01:40.849Z,101794.91
2023-12-27T08:04:09.193Z,101799.19
2023-12-27T08:06:38.270Z,101792.00
2023-12-27T08:09:06.731Z,101796.34
2023-12-27T08:11:35.087Z,101790.91
2023-12-27T08:14:03.409Z,101798.94
2023-12-27T08:16:31.642Z,101804.16
2023-12-27T08:18:59.938Z,101801.50
2023-12-27T08:21:28.257Z,101788.13
2023-12-27T08:23:56.487Z,101789.00
2023-12-27T08:26:24.760Z,101790.72
2023-12-27T08:28:53.002Z,101775.56
2023-12-27T08:31:21.376Z,101775.56
2023-12-27T08:33:51.827Z,101771.06
2023-12-27T08:36:20.194Z,101771.06
2023-12-27T08:38:48.404Z,101769.19
2023-12-27T08:41:16.625Z,101768.22
2023-12-27T08:43:45.986Z,101768.22
2023-12-27T08:46:16.235Z,101758.38
2023-12-27T08:48:44.594Z,101744.00
2023-12-27T08:51:12.979Z,101744.84
2023-12-27T08:53:41.242Z,101743.88
2023-12-27T08:56:10.078Z,101725.97
2023-12-27T08:58:38.326Z,101726.78
2023-12-27T09:01:06.656Z,101722.22
2023-12-27T09:03:35.150Z,101714.13
2023-12-27T09:06:03.696Z,101720.31
2023-12-27T09:08:32.036Z,101713.09
2023-12-27T09:11:00.337Z,101711.09
2023-12-27T09:13:28.530Z,101707.44
2023-12-27T09:15:57.007Z,101696.56
2023-12-27T09:18:25.401Z,101687.50
2023-12-27T09:20:55.351Z,101682.84
2023-12-27T09:23:23.620Z,101676.50
2023-12-27T09:25:51.810Z,101666.53
2023-12-27T09:28:20.382Z,101676.16
2023-12-27T09:30:48.624Z,101677.78
2023-12-27T09:33:18.485Z,101682.88
2023-12-27T09:35:47.049Z,101669.38
2023-12-27T09:38:15.296Z,101662.06
2023-12-27T09:40:43.776Z,101661.03
2023-12-27T09:43:13.586Z,101660.91
2023-12-27T09:45:43.271Z,101653.53
2023-12-27T09:48:13.867Z,101656.00
2023-12-27T09:50:42.336Z,101654.88
2023-12-27T09:53:12.296Z,101659.13
2023-12-27T09:55:40.918Z,101659.84
2023-12-27T09:58:09.276Z,101664.19
2023-12-27T10:00:39.796Z,101657.91
2023-12-27T10:03:11.948Z,101641.75
2023-12-27T10:05:55.202Z,101642.44
2023-12-27T10:08:23.481Z,101627.94
2023-12-27T10:10:53.294Z,101622.50
2023-12-27T10:13:21.828Z,101610.50
2023-12-27T10:15:50.103Z,101611.06
2023-12-27T10:18:18.684Z,101603.63
2023-12-27T10:20:49.468Z,101605.22
2023-12-27T10:23:17.726Z,101597.91
2023-12-27T10:25:46.612Z,101593.22
2023-12-27T10:28:15.097Z,101584.00
2023-12-27T10:30:43.356Z,101605.16
2023-12-27T10:33:14.769Z,101602.41
2023-12-27T10:35:45.949Z,101570.06
2023-12-27T10:38:14.173Z,101593.22
2023-12-27T10:40:42.411Z,101585.97
2023-12-27T10:43:11.002Z,101569.56
2023-12-27T10:45:39.476Z,101573.84
2023-12-27T10:48:08.124Z,101565.72
2023-12-27T10:50:36.799Z,101565.56
2023-12-27T10:53:09.311Z,101553.66
2023-12-27T10:55:39.626Z,101560.53
2023-12-27T10:58:14.759Z,101552.13
2023-12-27T11:00:42.865Z,101543.03
2023-12-27T11:03:14.477Z,101539.31
2023-12-27T11:05:43.221Z,101524.88
2023-12-27T11:08:14.521Z,101521.34
2023-12-27T11:10:46.111Z,101530.25
2023-12-27T11:13:20.685Z,101531.91
2023-12-27T11:15:52.025Z,101514.03
2023-12-27T11:18:20.785Z,101511.44
2023-12-27T11:20:52.161Z,101513.13
2023-12-27T11:23:20.400Z,101521.19
2023-12-27T11:25:48.628Z,101527.38
2023-12-27T11:28:17.298Z,101519.34
2023-12-27T11:30:47.865Z,101511.22
2023-12-27T11:33:27.542Z,101503.94
2023-12-27T11:35:58.488Z,101487.69
2023-12-27T11:38:27.780Z,101466.06
2023-12-27T11:40:59.089Z,101461.53
2023-12-27T11:43:28.416Z,101455.94
2023-12-27T11:46:02.409Z,101460.19
2023-12-27T11:48:37.620Z,101469.91
2023-12-27T11:51:36.285Z,101465.34
2023-12-27T11:54:07.625Z,101470.63
2023-12-27T11:56:40.102Z,101465.09
2023-12-27T11:59:10.153Z,101452.44
2023-12-27T12:01:41.075Z,101448.50
2023-12-27T12:04:12.266Z,101428.63
2023-12-27T12:06:58.113Z,101425.69
2023-12-27T12:09:39.956Z,101423.72
2023-12-27T12:12:21.475Z,101410.91
2023-12-27T12:14:57.176Z,101386.53
2023-12-27T12:17:28.626Z,101384.38
2023-12-27T12:19:57.471Z,101386.03
2023-12-27T12:22:25.996Z,101382.38
2023-12-27T12:24:54.278Z,101379.72
2023-12-27T12:27:25.409Z,101375.22
2023-12-27T12:29:55.260Z,101368.81
2023-12-27T12:32:23.616Z,101366.88
2023-12-27T12:34:51.911Z,101367.56
2023-12-27T12:37:20.327Z,101361.25
2023-12-27T12:39:48.640Z,101362.13
2023-12-27T12:42:17.058Z,101360.31
2023-12-27T12:44:46.739Z,101349.47
2023-12-27T12:47:15.028Z,101335.94
2023-12-27T12:49:43.378Z,101339.22
2023-12-27T12:52:11.672Z,101340.00
2023-12-27T12:54:39.938Z,101326.66
2023-12-27T12:57:08.241Z,101318.50
2023-12-27T12:59:36.602Z,101319.38
2023-12-27T13:02:04.914Z,101304.88
2023-12-27T13:04:33.169Z,101302.09
2023-12-27T13:07:02.578Z,101294.72
2023-12-27T13:09:30.820Z,101300.97
2023-12-27T13:12:00.028Z,101283.13
2023-12-27T13:14:28.357Z,101286.66
2023-12-27T13:16:56.736Z,101277.75
2023-12-27T13:19:25.148Z,101275.91
2023-12-27T13:21:54.286Z,101280.34
2023-12-27T13:24:22.578Z,101275.91
2023-12-27T13:26:50.829Z,101277.75
2023-12-27T13:29:19.801Z,101263.31
2023-12-27T13:31:48.042Z,101247.09
2023-12-27T13:34:16.858Z,101246.06
2023-12-27T13:36:47.734Z,101234.44
2023-12-27T13:39:16.801Z,101229.00
2023-12-27T13:41:45.071Z,101213.88
2023-12-27T13:44:13.286Z,101200.53
2023-12-27T13:46:41.519Z,101196.09
2023-12-27T13:49:10.762Z,101207.91
2023-12-27T13:51:39.226Z,101212.34
2023-12-27T13:54:17.803Z,101197.22
2023-12-27T13:56:53.230Z,101185.44
2023-12-27T13:59:21.501Z,101194.41
2023-12-27T14:01:50.018Z,101186.47
2023-12-27T14:04:18.582Z,101177.56
2023-12-27T14:06:46.939Z,101168.63
2023-12-27T14:09:18.153Z,101160.66
2023-12-27T14:11:46.963Z,101157.19
2023-12-27T14:14:15.194Z,101156.31
2023-12-27T14:16:44.777Z,101145.56
2023-12-27T14:19:14.956Z,101148.34
2023-12-27T14:21:43.634Z,101152.00
2023-12-27T14:24:14.098Z,101156.50
2023-12-27T14:26:43.882Z,101149.50
2023-12-27T14:29:12.379Z,101155.13
2023-12-27T14:31:41.112Z,101151.69
2023-12-27T14:34:09.717Z,101155.41
2023-12-27T14:36:42.013Z,101129.50
2023-12-27T14:39:13.153Z,101136.50
2023-12-27T14:41:44.788Z,101143.78
2023-12-27T14:44:14.208Z,101133.31
2023-12-27T14:46:45.392Z,101116.22
2023-12-27T14:49:13.779Z,101135.34
2023-12-27T14:51:42.386Z,101120.28
2023-12-27T14:54:10.802Z,101129.28
2023-12-27T14:56:39.052Z,101127.47
2023-12-27T14:59:07.542Z,101118.53
2023-12-27T15:01:36.038Z,101099.91
2023-12-27T15:04:09.856Z,101082.06
2023-12-27T15:06:38.477Z,101059.78
2023-12-27T15:09:07.000Z,101056.13
2023-12-27T15:11:35.322Z,101049.91
2023-12-27T15:14:03.569Z,101062.28
2023-12-27T15:16:31.796Z,101062.28
2023-12-27T15:19:00.502Z,101045.28
2023-12-27T15:21:30.310Z,101059.50
2023-12-27T15:23:58.665Z,101052.66
2023-12-27T15:26:28.113Z,101057.97
2023-12-27T15:28:56.926Z,101035.69
2023-12-27T15:31:28.914Z,101040.97
2023-12-27T15:34:01.182Z,101032.13
2023-12-27T15:36:29.796Z,101015.91
2023-12-27T15:38:57.990Z,101007.00
2023-12-27T15:41:30.080Z,101024.97
2023-12-27T15:44:00.901Z,101017.94
2023-12-27T15:46:31.201Z,101000.00
2023-12-27T15:49:00.678Z,100997.31
2023-12-27T15:51:35.835Z,100996.25
2023-12-27T15:54:07.375Z,100991.75
2023-12-27T15:56:42.738Z,100983.09
2023-12-27T15:59:12.891Z,100971.69
2023-12-27T16:01:44.276Z,100965.25
2023-12-27T16:04:15.620Z,100962.47
2023-12-27T16:06:47.117Z,100954.41
2023-12-27T16:09:16.017Z,100947.41
2023-12-27T16:11:44.952Z,100929.88
2023-12-27T16:14:14.035Z,100929.88
2023-12-27T16:16:45.328Z,100934.25
2023-12-27T16:19:13.981Z,100933.59
2023-12-27T16:21:43.415Z,100926.50
2023-12-27T16:24:11.923Z,100909.41
2023-12-27T16:26:40.161Z,100914.69
2023-12-27T16:29:08.383Z,100922.06
2023-12-27T16:31:36.640Z,100922.94
2023-12-27T16:34:05.069Z,100898.97
2023-12-27T16:36:33.636Z,100897.31
2023-12-27T16:39:01.872Z,100890.03
2023-12-27T16:41:30.184Z,100901.94
2023-12-27T16:44:00.749Z,100891.34
2023-12-27T16:46:29.297Z,100880.56
2023-12-27T16:48:59.878Z,100883.41
2023-12-27T16:51:28.453Z,100888.78
2023-12-27T16:53:56.800Z,100879.00
2023-12-27T16:56:25.571Z,100880.22
2023-12-27T16:58:53.795Z,100880.63
2023-12-27T17:01:22.101Z,100869.41
2023-12-27T17:03:50.829Z,100869.31
2023-12-27T17:06:19.301Z,100863.16
2023-12-27T17:08:47.506Z,100859.59
2023-12-27T17:11:15.958Z,100859.78
2023-12-27T17:13:44.197Z,100848.88
2023-12-27T17:16:12.924Z,100843.50
2023-12-27T17:18:41.400Z,100831.13
2023-12-27T17:21:09.737Z,100821.34
2023-12-27T17:23:37.967Z,100817.63
2023-12-27T17:26:10.533Z,100796.81
2023-12-27T17:28:39.709Z,100797.97
2023-12-27T17:31:08.120Z,100783.69
2023-12-27T17:33:36.567Z,100790.88
2023-12-27T17:36:05.049Z,100791.06
2023-12-27T17:38:34.212Z,100800.34
2023-12-27T17:41:03.570Z,100804.00
2023-12-27T17:43:33.108Z,100794.03
2023-12-27T17:46:01.364Z,100778.69
2023-12-27T17:48:33.490Z,100787.81
2023-12-27T17:51:01.851Z,100788.84
2023-12-27T17:53:30.235Z,100796.31
2023-12-27T17:55:58.464Z,100791.81
2023-12-27T17:58:28.198Z,100795.84
2023-12-27T18:00:56.670Z,100796.72
2023-12-27T18:03:25.131Z,100794.50
2023-12-27T18:05:55.838Z,100797.88
2023-12-27T18:08:24.195Z,100793.19
2023-12-27T18:10:52.463Z,100793.19
2023-12-27T18:13:20.855Z,100782.72
2023-12-27T18:15:49.414Z,100784.81
2023-12-27T18:18:19.082Z,100792.28
2023-12-27T18:20:47.554Z,100787.88
2023-12-27T18:23:15.993Z,100777.25
2023-12-27T18:25:44.247Z,100768.91
2023-12-27T18:28:12.486Z,100781.47
2023-12-27T18:30:41.857Z,100779.84
2023-12-27T18:33:10.379Z,100767.66
2023-12-27T18:35:38.733Z,100764.13
2023-12-27T18:38:06.963Z,100756.75
2023-12-27T18:40:36.712Z,100748.22
2023-12-27T18:43:06.288Z,100737.38
2023-12-27T18:45:34.736Z,100739.19
2023-12-27T18:48:06.478Z,100737.56
2023-12-27T18:50:37.124Z,100723.50
2023-12-27T18:53:05.515Z,100715.03
2023-12-27T18:55:34.432Z,100725.56
2023-12-27T18:58:08.334Z,100716.00
2023-12-27T19:00:36.712Z,100707.94
2023-12-27T19:03:05.287Z,100710.50
2023-12-27T19:05:34.619Z,100703.31
2023-12-27T19:08:02.887Z,100707.34
2023-12-27T19:10:32.529Z,100716.53
2023-12-27T19:13:00.919Z,100739.16
2023-12-27T19:15:29.430Z,100756.19
2023-12-27T19:17:57.790Z,100745.34
2023-12-27T19:20:26.167Z,100755.72
2023-12-27T19:22:54.482Z,100740.66
2023-12-27T19:25:22.832Z,100732.31
2023-12-27T19:27:51.335Z,100733.63
2023-12-27T19:30:19.777Z,100736.84
2023-12-27T19:32:48.138Z,100727.44
2023-12-27T19:35:18.468Z,100724.66
2023-12-27T19:37:46.864Z,100726.94
2023-12-27T19:40:15.377Z,100719.56
2023-12-27T19:42:43.687Z,100722.88
2023-12-27T19:45:12.137Z,100712.09
2023-12-27T19:47:40.453Z,100700.31
2023-12-27T19:50:09.085Z,100695.81
2023-12-27T19:52:37.419Z,100697.97
2023-12-27T19:55:13.358Z,100704.00
2023-12-27T19:57:41.906Z,100697.09
2023-12-27T20:00:13.254Z,100719.00
2023-12-27T20:02:41.986Z,100723.19
2023-12-27T20:05:10.228Z,100727.41
2023-12-27T20:07:38.454Z,100739.03
2023-12-27T20:10:06.963Z,100725.94
2023-12-27T20:12:36.321Z,100745.22
2023-12-27T20:15:08.475Z,100739.09
2023-12-27T20:17:36.846Z,100750.47
2023-12-27T20:20:05.500Z,100749.59
2023-12-27T20:22:34.012Z,100743.09
2023-12-27T20:25:02.264Z,100740.69
2023-12-27T20:27:30.495Z,100737.25
2023-12-27T20:29:58.673Z,100733.78
2023-12-27T20:32:26.901Z,100725.72
2023-12-27T20:34:58.040Z,100739.06
2023-12-27T20:37:26.757Z,100755.56
2023-12-27T20:39:56.014Z,100748.88
2023-12-27T20:42:24.353Z,100751.44
2023-12-27T20:44:53.377Z,100743.19
2023-12-27T20:47:21.684Z,100743.66
2023-12-27T20:49:50.219Z,100747.66
2023-12-27T20:52:18.646Z,100750.34
2023-12-27T20:54:46.924Z,100762.03
2023-12-27T20:57:15.365Z,100755.72
2023-12-27T20:59:43.924Z,100761.97
2023-12-27T21:02:12.328Z,100758.66
2023-12-27T21:04:40.657Z,100751.38
2023-12-27T21:07:09.027Z,100766.13
2023-12-27T21:09:37.379Z,100757.22
2023-12-27T21:12:06.906Z,100762.28
2023-12-27T21:14:35.117Z,100766.59
2023-12-27T21:17:03.396Z,100768.41
2023-12-27T21:19:32.827Z,100775.72
2023-12-27T21:22:01.095Z,100766.13
2023-12-27T21:24:29.352Z,100772.34
2023-12-27T21:26:57.579Z,100764.50
2023-12-27T21:29:25.839Z,100765.59
2023-12-27T21:31:54.067Z,100773.63
2023-12-27T21:34:22.797Z,100775.34
2023-12-27T21:36:51.148Z,100775.44
2023-12-27T21:39:19.454Z,100773.31
2023-12-27T21:41:47.805Z,100768.06
2023-12-27T21:44:16.056Z,100785.13
2023-12-27T21:46:44.445Z,100784.38
2023-12-27T21:49:12.859Z,100754.06
2023-12-27T21:51:41.296Z,100778.44
2023-12-27T21:54:09.568Z,100776.69
2023-12-27T21:56:38.018Z,100765.75
2023-12-27T21:59:07.122Z,100798.66
2023-12-27T22:01:36.383Z,100797.50
2023-12-27T22:04:07.214Z,100804.44
2023-12-27T22:06:35.650Z,100783.66
2023-12-27T22:09:03.988Z,100802.47
2023-12-27T22:11:32.750Z,100802.31
2023-12-27T22:14:04.149Z,100804.44
2023-12-27T22:16:32.907Z,100785.91
2023-12-27T22:19:01.756Z,100791.38
2023-12-27T22:21:31.412Z,100805.00
2023-12-27T22:23:59.863Z,100797.81
2023-12-27T22:26:28.380Z,100781.59
2023-12-27T22:28:56.583Z,100791.38
2023-12-27T22:31:25.667Z,100799.44
2023-12-27T22:33:54.125Z,100800.00
2023-12-27T22:36:24.801Z,100798.84
2023-12-27T22:38:57.131Z,100813.22
2023-12-27T22:41:25.463Z,100811.22
2023-12-27T22:43:53.832Z,100814.56
2023-12-27T22:46:22.136Z,100813.69
2023-12-27T22:48:50.513Z,100806.59
2023-12-27T22:51:19.011Z,100809.97
2023-12-27T22:53:47.327Z,100810.97
2023-12-27T22:56:15.604Z,100814.53
2023-12-27T22:58:43.899Z,100817.13
2023-12-27T23:01:12.177Z,100819.59
2023-12-27T23:03:40.516Z,100830.06
2023-12-27T23:06:10.724Z,100830.75
2023-12-27T23:08:39.439Z,100832.06
2023-12-27T23:11:07.711Z,100827.47
2023-12-27T23:13:35.948Z,100822.06
2023-12-27T23:16:04.223Z,100826.47
2023-12-27T23:18:32.597Z,100811.31
2023-12-27T23:21:00.875Z,100815.81
2023-12-27T23:23:29.080Z,100820.34
2023-12-27T23:25:57.340Z,100822.06
2023-12-27T23:28:25.712Z,100823.78
2023-12-27T23:30:54.147Z,100834.16
2023-12-27T23:33:22.785Z,100832.97
2023-12-27T23:35:51.143Z,100836.22
2023-12-27T23:38:19.395Z,100834.94
2023-12-27T23:40:48.201Z,100830.22
2023-12-27T23:43:16.482Z,100837.88
2023-12-27T23:45:44.979Z,100840.34
2023-12-27T23:48:13.555Z,100839.19
2023-12-27T23:50:41.893Z,100843.19
2023-12-27T23:53:10.223Z,100849.25
2023-12-27T23:55:38.423Z,100845.25
2023-12-27T23:58:06.726Z,100835.03
